Time;durP1;ratioP1;P1;durP2;ratioP2;P2;SDS_P1;SDS_P2;PMS_P1;PMS_P2;Temp;Humidity;BMP_temperature;BMP_pressure;BME280_temperature;BME280_humidity;BME280_pressure;Samples;Min_cycle;Max_cycle;Signal;HPM_P1;HPM_P2
2021/07/19 00:02:18;;;;;;;;;;;;;;;;;;2144539;58;1276;-72
2021/07/19 00:04:44;;;;;;;;;;;;;;;;;;2140489;66;1921;-70
2021/07/19 00:07:10;;;;;;;;;;;;;;;;;;2144501;66;1606;-71
2021/07/19 00:09:35;;;;;;;;;;;;;;;;;;2144080;66;1219;-71
2021/07/19 00:12:01;;;;;;;;;;;;;;;;;;2144578;59;1362;-71
2021/07/19 00:14:27;;;;;;;;;;;;;;;;;;2144346;66;1152;-72
2021/07/19 00:16:52;;;;;;;;;;;;;;;;;;2143636;66;1220;-72
2021/07/19 00:19:18;;;;;;;;;;;;;;;;;;2144380;66;1183;-70
2021/07/19 00:21:43;;;;;;;;;;;;;;;;;;2144386;66;1216;-71
2021/07/19 00:24:08;;;;;;;;;;;;;;;;;;2144096;59;2007;-72
2021/07/19 00:26:33;;;;;;;;;;;;;;;;;;2146173;66;1038;-71
2021/07/19 00:28:58;;;;;;;;;;;;;;;;;;2145095;66;1434;-71
2021/07/19 00:31:24;;;;;;;;;;;;;;;;;;2145005;66;1314;-70
2021/07/19 00:33:49;;;;;;;;;;;;;;;;;;2145189;66;1376;-71
2021/07/19 00:36:14;;;;;;;;;;;;;;;;;;2145495;66;1189;-71
2021/07/19 00:38:39;;;;;;;;;;;;;;;;;;2144483;66;1273;-73
2021/07/19 00:41:05;;;;;;;;;;;;;;;;;;2140536;66;1364;-72
2021/07/19 00:43:31;;;;;;;;;;;;;;;;;;2145374;66;1978;-70
2021/07/19 00:45:56;;;;;;;;;;;;;;;;;;2144267;66;1246;-72
2021/07/19 00:48:21;;;;;;;;;;;;;;;;;;2144812;66;1153;-71
2021/07/19 00:50:46;;;;;;;;;;;;;;;;;;2144810;66;1288;-72
2021/07/19 00:53:12;;;;;;;;;;;;;;;;;;2144179;66;1211;-70
2021/07/19 00:55:38;;;;;;;;;;;;;;;;;;2144410;66;1183;-71
2021/07/19 00:58:04;;;;;;;;;;;;;;;;;;2144352;66;1144;-72
2021/07/19 01:00:31;;;;;;;;;;;;;;;;;;2143057;66;1136;-71
2021/07/19 01:02:57;;;;;;;;;;;;;;;;;;2144366;59;1945;-71
2021/07/19 01:05:24;;;;;;;;;;;;;;;;;;2143918;66;1194;-70
2021/07/19 01:07:49;;;;;;;;;;;;;;;;;;2146178;66;1186;-71
2021/07/19 01:10:17;;;;;;;;;;;;;;;;;;2144635;66;1159;-71
2021/07/19 01:13:01;;;;;;;;;;;;;;;;;;2144569;59;1351;-70
2021/07/19 01:15:28;;;;;;;;;;;;;;;;;;2143929;59;1293;-71
2021/07/19 01:17:53;;;;;;;;;;;;;;;;;;2144711;66;1236;-72
2021/07/19 01:20:29;;;;;;;;;;;;;;;;;;2144184;66;1203;-71
2021/07/19 01:23:13;;;;;;;;;;;;;;;;;;2143627;59;1927;-71
2021/07/19 01:25:46;;;;;;;;;;;;;;;;;;2143026;59;2190;-71
2021/07/19 01:28:11;;;;;;;;;;;;;;;;;;2145541;66;1555;-71
2021/07/19 01:30:38;;;;;;;;;;;;;;;;;;2142314;66;1319;-72
2021/07/19 01:33:05;;;;;;;;;;;;;;;;;;2144440;66;1630;-71
2021/07/19 01:35:35;;;;;;;;;;;;;;;;;;2144575;66;1089;-69
2021/07/19 01:38:01;;;;;;;;;;;;;;;;;;2144255;66;1122;-71
2021/07/19 01:40:27;;;;;;;;;;;;;;;;;;2144589;66;1233;-70
2021/07/19 01:42:52;;;;;;;;;;;;;;;;;;2145035;66;1983;-70
2021/07/19 01:45:17;;;;;;;;;;;;;;;;;;2143735;66;1249;-71
2021/07/19 01:47:43;;;;;;;;;;;;;;;;;;2144729;66;1159;-73
2021/07/19 01:50:09;;;;;;;;;;;;;;;;;;2144560;66;1138;-71
2021/07/19 01:52:35;;;;;;;;;;;;;;;;;;2144184;66;1331;-72
2021/07/19 01:55:00;;;;;;;;;;;;;;;;;;2144426;66;1223;-70
2021/07/19 01:57:26;;;;;;;;;;;;;;;;;;2143930;66;1077;-70
2021/07/19 01:59:51;;;;;;;;;;;;;;;;;;2144437;66;1219;-72
2021/07/19 02:02:20;;;;;;;;;;;;;;;;;;2143924;59;1281;-72
2021/07/19 02:04:45;;;;;;;;;;;;;;;;;;2144009;59;2329;-71
2021/07/19 02:07:11;;;;;;;;;;;;;;;;;;2144084;59;1411;-71
2021/07/19 02:09:37;;;;;;;;;;;;;;;;;;2144068;66;1180;-71
2021/07/19 02:12:03;;;;;;;;;;;;;;;;;;2143480;59;1307;-72
2021/07/19 02:14:29;;;;;;;;;;;;;;;;;;2143220;59;1152;-73
2021/07/19 02:16:55;;;;;;;;;;;;;;;;;;2144403;59;1539;-71
2021/07/19 02:19:22;;;;;;;;;;;;;;;;;;2143772;66;1164;-71
2021/07/19 02:21:48;;;;;;;;;;;;;;;;;;2144184;58;1414;-72
2021/07/19 02:24:14;;;;;;;;;;;;;;;;;;2142533;59;2316;-72
2021/07/19 02:26:39;;;;;;;;;;;;;;;;;;2143748;66;1429;-71
2021/07/19 02:29:05;;;;;;;;;;;;;;;;;;2144696;66;1654;-72
2021/07/19 02:31:31;;;;;;;;;;;;;;;;;;2144872;66;1334;-71
2021/07/19 02:33:56;;;;;;;;;;;;;;;;;;2144259;66;1140;-72
2021/07/19 02:36:22;;;;;;;;;;;;;;;;;;2143937;66;1150;-71
2021/07/19 02:38:49;;;;;;;;;;;;;;;;;;2146720;59;1275;-71
2021/07/19 02:41:16;;;;;;;;;;;;;;;;;;2143416;62;1142;-71
2021/07/19 02:43:41;;;;;;;;;;;;;;;;;;2143634;66;1977;-72
2021/07/19 02:46:08;;;;;;;;;;;;;;;;;;2144176;66;1335;-71
2021/07/19 02:48:36;;;;;;;;;;;;;;;;;;2145090;66;1166;-71
2021/07/19 02:51:02;;;;;;;;;;;;;;;;;;2146460;66;1039;-72
2021/07/19 02:53:30;;;;;;;;;;;;;;;;;;2143963;67;1242;-73
2021/07/19 02:55:57;;;;;;;;;;;;;;;;;;2143848;67;1205;-70
2021/07/19 02:58:22;;;;;;;;;;;;;;;;;;2144137;67;1160;-72
2021/07/19 03:00:49;;;;;;;;;;;;;;;;;;2143712;67;1090;-70
2021/07/19 03:03:20;;;;;;;;;;;;;;;;;;2144020;59;1982;-71
2021/07/19 03:05:49;;;;;;;;;;;;;;;;;;2144278;66;1232;-71
2021/07/19 03:08:15;;;;;;;;;;;;;;;;;;2144403;66;1583;-72
2021/07/19 03:10:41;;;;;;;;;;;;;;;;;;2144380;66;1156;-70
2021/07/19 03:13:09;;;;;;;;;;;;;;;;;;2144330;58;1596;-71
2021/07/19 03:15:35;;;;;;;;;;;;;;;;;;2144471;59;1284;-71
2021/07/19 03:18:02;;;;;;;;;;;;;;;;;;2144653;66;1140;-72
2021/07/19 03:20:28;;;;;;;;;;;;;;;;;;2144627;66;1253;-70
2021/07/19 03:22:53;;;;;;;;;;;;;;;;;;2144177;59;1410;-70
2021/07/19 03:25:23;;;;;;;;;;;;;;;;;;2143691;59;1937;-70
2021/07/19 03:27:49;;;;;;;;;;;;;;;;;;2145199;66;1432;-70
2021/07/19 03:30:17;;;;;;;;;;;;;;;;;;2144872;66;1714;-72
2021/07/19 03:32:43;;;;;;;;;;;;;;;;;;2144836;66;1255;-71
2021/07/19 03:35:08;;;;;;;;;;;;;;;;;;2144443;66;1159;-71
2021/07/19 03:37:33;;;;;;;;;;;;;;;;;;2145321;66;1306;-71
2021/07/19 03:39:59;;;;;;;;;;;;;;;;;;2144624;59;1463;-72
2021/07/19 03:42:25;;;;;;;;;;;;;;;;;;2144282;66;1261;-71
2021/07/19 03:44:50;;;;;;;;;;;;;;;;;;2144984;66;1920;-70
2021/07/19 03:47:16;;;;;;;;;;;;;;;;;;2146076;66;1184;-72
2021/07/19 03:49:41;;;;;;;;;;;;;;;;;;2145308;66;1151;-71
2021/07/19 03:52:07;;;;;;;;;;;;;;;;;;2144466;66;1173;-70
2021/07/19 03:54:33;;;;;;;;;;;;;;;;;;2143877;66;1112;-70
2021/07/19 03:56:59;;;;;;;;;;;;;;;;;;2143981;66;1112;-72
2021/07/19 03:59:26;;;;;;;;;;;;;;;;;;2144106;66;1163;-71
2021/07/19 04:01:51;;;;;;;;;;;;;;;;;;2144022;66;1209;-71
2021/07/19 04:04:29;;;;;;;;;;;;;;;;;;2144108;66;1928;-71
2021/07/19 04:06:55;;;;;;;;;;;;;;;;;;2143774;66;1091;-72
2021/07/19 04:09:20;;;;;;;;;;;;;;;;;;2144423;66;1293;-70
2021/07/19 04:11:45;;;;;;;;;;;;;;;;;;2144277;59;1402;-71
2021/07/19 04:14:10;;;;;;;;;;;;;;;;;;2144332;59;1187;-70
2021/07/19 04:16:36;;;;;;;;;;;;;;;;;;2143545;59;1288;-71
2021/07/19 04:19:01;;;;;;;;;;;;;;;;;;2144480;66;1216;-72
2021/07/19 04:21:26;;;;;;;;;;;;;;;;;;2144505;66;1245;-71
2021/07/19 04:23:53;;;;;;;;;;;;;;;;;;2143194;59;1931;-70
2021/07/19 04:26:18;;;;;;;;;;;;;;;;;;2144636;59;2762;-71
2021/07/19 04:28:44;;;;;;;;;;;;;;;;;;2144807;66;1155;-73
2021/07/19 04:31:12;;;;;;;;;;;;;;;;;;2145124;66;1307;-71
2021/07/19 04:33:42;;;;;;;;;;;;;;;;;;2144330;66;1237;-70
2021/07/19 04:36:07;;;;;;;;;;;;;;;;;;2143743;66;1228;-71
2021/07/19 04:38:32;;;;;;;;;;;;;;;;;;2145260;66;1289;-72
2021/07/19 04:40:58;;;;;;;;;;;;;;;;;;2144376;66;1151;-72
2021/07/19 04:43:24;;;;;;;;;;;;;;;;;;2144215;66;2033;-71
2021/07/19 04:45:50;;;;;;;;;;;;;;;;;;2144188;66;1152;-71
2021/07/19 04:48:15;;;;;;;;;;;;;;;;;;2144719;66;1207;-72
2021/07/19 04:50:41;;;;;;;;;;;;;;;;;;2145021;59;1232;-70
2021/07/19 04:53:06;;;;;;;;;;;;;;;;;;2144128;66;1253;-71
2021/07/19 04:55:32;;;;;;;;;;;;;;;;;;2144348;66;1174;-71
2021/07/19 04:57:59;;;;;;;;;;;;;;;;;;2144489;66;1156;-71
2021/07/19 05:00:25;;;;;;;;;;;;;;;;;;2144758;66;1236;-71
2021/07/19 05:02:51;;;;;;;;;;;;;;;;;;2144778;59;1203;-71
2021/07/19 05:05:18;;;;;;;;;;;;;;;;;;2143568;66;1937;-71
2021/07/19 05:07:44;;;;;;;;;;;;;;;;;;2144351;66;1151;-72
2021/07/19 05:10:10;;;;;;;;;;;;;;;;;;2144320;66;1144;-72
2021/07/19 05:12:35;;;;;;;;;;;;;;;;;;2143800;59;1334;-71
2021/07/19 05:15:01;;;;;;;;;;;;;;;;;;2144378;59;1243;-70
2021/07/19 05:17:27;;;;;;;;;;;;;;;;;;2142032;66;1223;-71
2021/07/19 05:19:53;;;;;;;;;;;;;;;;;;2144296;66;1149;-72
2021/07/19 05:22:18;;;;;;;;;;;;;;;;;;2144121;59;1349;-71
2021/07/19 05:24:43;;;;;;;;;;;;;;;;;;2143382;66;2121;-73
2021/07/19 05:27:10;;;;;;;;;;;;;;;;;;2145009;66;1597;-72
2021/07/19 05:29:36;;;;;;;;;;;;;;;;;;2141294;66;1537;-71
2021/07/19 05:32:02;;;;;;;;;;;;;;;;;;2144484;59;1794;-71
2021/07/19 05:34:27;;;;;;;;;;;;;;;;;;2142839;66;1406;-72
2021/07/19 05:36:52;;;;;;;;;;;;;;;;;;2144196;66;1683;-72
2021/07/19 05:39:17;;;;;;;;;;;;;;;;;;2144967;66;1238;-72
2021/07/19 05:41:43;;;;;;;;;;;;;;;;;;2145490;66;1352;-71
2021/07/19 05:44:10;;;;;;;;;;;;;;;;;;2145298;66;1936;-71
2021/07/19 05:46:35;;;;;;;;;;;;;;;;;;2144042;66;1179;-71
2021/07/19 05:49:01;;;;;;;;;;;;;;;;;;2144975;66;1159;-71
2021/07/19 05:51:26;;;;;;;;;;;;;;;;;;2143204;63;1865;-71
2021/07/19 05:53:51;;;;;;;;;;;;;;;;;;2144204;66;1260;-72
2021/07/19 05:56:16;;;;;;;;;;;;;;;;;;2144253;66;1184;-72
2021/07/19 05:58:42;;;;;;;;;;;;;;;;;;2143847;66;1143;-71
2021/07/19 06:01:07;;;;;;;;;;;;;;;;;;2144534;66;1176;-72
2021/07/19 06:03:32;;;;;;;;;;;;;;;;;;2143923;59;1941;-71
2021/07/19 06:05:57;;;;;;;;;;;;;;;;;;2143496;66;1250;-71
2021/07/19 06:08:22;;;;;;;;;;;;;;;;;;2143719;66;2006;-71
2021/07/19 06:10:47;;;;;;;;;;;;;;;;;;2145306;66;1258;-71
2021/07/19 06:13:13;;;;;;;;;;;;;;;;;;2145948;59;1206;-71
2021/07/19 06:15:39;;;;;;;;;;;;;;;;;;2144949;59;1337;-72
2021/07/19 06:18:04;;;;;;;;;;;;;;;;;;2143898;66;2000;-71
2021/07/19 06:20:29;;;;;;;;;;;;;;;;;;2143153;66;2082;-72
2021/07/19 06:23:00;;;;;;;;;;;;;;;;;;2143992;59;1299;-72
2021/07/19 06:25:25;;;;;;;;;;;;;;;;;;2143636;59;1933;-71
2021/07/19 06:27:51;;;;;;;;;;;;;;;;;;2144276;66;1138;-71
2021/07/19 06:30:16;;;;;;;;;;;;;;;;;;2143966;59;1974;-72
2021/07/19 06:32:41;;;;;;;;;;;;;;;;;;2145022;66;1406;-71
2021/07/19 06:35:07;;;;;;;;;;;;;;;;;;2145086;66;1139;-72
2021/07/19 06:37:32;;;;;;;;;;;;;;;;;;2144098;66;1184;-72
2021/07/19 06:39:57;;;;;;;;;;;;;;;;;;2143618;66;1230;-71
2021/07/19 06:42:26;;;;;;;;;;;;;;;;;;2143925;59;1210;-71
2021/07/19 06:44:54;;;;;;;;;;;;;;;;;;2143633;66;1934;-71
2021/07/19 06:47:20;;;;;;;;;;;;;;;;;;2143531;59;1641;-72
2021/07/19 06:49:45;;;;;;;;;;;;;;;;;;2143780;66;1708;-71
2021/07/19 06:52:10;;;;;;;;;;;;;;;;;;2139984;67;1526;-71
2021/07/19 06:54:36;;;;;;;;;;;;;;;;;;2141518;59;2244;-71
2021/07/19 06:57:01;;;;;;;;;;;;;;;;;;2143668;67;1094;-72
2021/07/19 06:59:26;;;;;;;;;;;;;;;;;;2143146;59;2001;-71
2021/07/19 07:01:51;;;;;;;;;;;;;;;;;;2143613;59;1275;-72
2021/07/19 07:04:16;;;;;;;;;;;;;;;;;;2141949;59;2084;-71
2021/07/19 07:06:43;;;;;;;;;;;;;;;;;;2143911;66;1423;-72
2021/07/19 07:09:08;;;;;;;;;;;;;;;;;;2144525;66;1383;-72
2021/07/19 07:11:33;;;;;;;;;;;;;;;;;;2141802;59;1934;-72
2021/07/19 07:13:58;;;;;;;;;;;;;;;;;;2142251;59;1804;-72
2021/07/19 07:16:24;;;;;;;;;;;;;;;;;;2143169;59;1349;-71
2021/07/19 07:18:49;;;;;;;;;;;;;;;;;;2139863;58;2137;-71
2021/07/19 07:21:15;;;;;;;;;;;;;;;;;;2140146;59;1590;-72
2021/07/19 07:23:40;;;;;;;;;;;;;;;;;;2142700;59;1925;-72
2021/07/19 07:26:05;;;;;;;;;;;;;;;;;;2143229;66;1043;-74
2021/07/19 07:28:31;;;;;;;;;;;;;;;;;;2142756;60;2276;-73
2021/07/19 07:30:56;;;;;;;;;;;;;;;;;;2141415;59;3029;-72
2021/07/19 07:33:21;;;;;;;;;;;;;;;;;;2140759;58;1970;-71
2021/07/19 07:35:46;;;;;;;;;;;;;;;;;;2141433;66;1581;-70
2021/07/19 07:38:11;;;;;;;;;;;;;;;;;;2143295;66;1244;-71
2021/07/19 07:40:37;;;;;;;;;;;;;;;;;;2142687;59;1984;-72
2021/07/19 07:43:02;;;;;;;;;;;;;;;;;;2142681;59;1844;-70
2021/07/19 07:45:27;;;;;;;;;;;;;;;;;;2138508;59;1932;-73
2021/07/19 07:47:52;;;;;;;;;;;;;;;;;;2141337;59;1966;-72
2021/07/19 07:50:17;;;;;;;;;;;;;;;;;;2143862;59;1666;-72
2021/07/19 07:52:43;;;;;;;;;;;;;;;;;;2143957;59;1897;-72
2021/07/19 07:55:08;;;;;;;;;;;;;;;;;;2142783;66;1725;-70
2021/07/19 07:57:34;;;;;;;;;;;;;;;;;;2142736;66;1342;-72
2021/07/19 07:59:59;;;;;;;;;;;;;;;;;;2142524;66;1112;-72
2021/07/19 08:02:24;;;;;;;;;;;;;;;;;;2145728;58;1234;-75
2021/07/19 08:04:49;;;;;;;;;;;;;;;;;;2144665;53;2187;-68
2021/07/19 08:07:14;;;;;;;;;;;;;;;;;;2137896;59;1182;-66
2021/07/19 08:09:40;;;;;;;;;;;;;;;;;;2138555;59;1277;-69
2021/07/19 08:12:05;;;;;;;;;;;;;;;;;;2139064;59;1251;-69
2021/07/19 08:14:30;;;;;;;;;;;;;;;;;;2136823;67;1151;-68
2021/07/19 08:16:56;;;;;;;;;;;;;;;;;;2135764;59;1958;-68
2021/07/19 08:19:22;;;;;;;;;;;;;;;;;;2136220;67;1255;-66
2021/07/19 08:21:47;;;;;;;;;;;;;;;;;;2136320;59;1364;-68
2021/07/19 08:24:13;;;;;;;;;;;;;;;;;;2134941;59;1983;-67
2021/07/19 08:26:38;;;;;;;;;;;;;;;;;;2136966;67;1162;-69
2021/07/19 08:29:04;;;;;;;;;;;;;;;;;;2134645;67;1154;-69
2021/07/19 08:31:29;;;;;;;;;;;;;;;;;;2137426;67;1231;-68
2021/07/19 08:33:56;;;;;;;;;;;;;;;;;;2136608;67;1203;-68
2021/07/19 08:36:21;;;;;;;;;;;;;;;;;;2136235;67;1259;-65
2021/07/19 08:38:47;;;;;;;;;;;;;;;;;;2136181;59;1182;-68
2021/07/19 08:41:12;;;;;;;;;;;;;;;;;;2136324;67;1156;-68
2021/07/19 08:43:38;;;;;;;;;;;;;;;;;;2134657;67;1913;-69
2021/07/19 08:46:03;;;;;;;;;;;;;;;;;;2136256;67;1188;-67
2021/07/19 08:48:30;;;;;;;;;;;;;;;;;;2136213;67;1155;-68
2021/07/19 08:50:55;;;;;;;;;;;;;;;;;;2135650;67;1576;-69
2021/07/19 08:53:21;;;;;;;;;;;;;;;;;;2133870;67;1133;-67
2021/07/19 08:55:50;;;;;;;;;;;;;;;;;;2135820;67;1049;-67
2021/07/19 08:58:15;;;;;;;;;;;;;;;;;;2135078;67;1153;-67
2021/07/19 09:00:41;;;;;;;;;;;;;;;;;;2134619;67;1121;-69
2021/07/19 09:03:06;;;;;;;;;;;;;;;;;;2134756;59;1223;-68
2021/07/19 09:05:31;;;;;;;;;;;;;;;;;;2135606;67;1929;-67
2021/07/19 09:07:57;;;;;;;;;;;;;;;;;;2134941;59;1483;-67
2021/07/19 09:10:23;;;;;;;;;;;;;;;;;;2134953;67;1215;-68
2021/07/19 09:12:49;;;;;;;;;;;;;;;;;;2136582;59;1337;-68
2021/07/19 09:15:14;;;;;;;;;;;;;;;;;;2134669;59;1264;-68
2021/07/19 09:17:40;;;;;;;;;;;;;;;;;;2135319;59;1318;-67
2021/07/19 09:20:09;;;;;;;;;;;;;;;;;;2135608;67;1217;-69
2021/07/19 09:22:35;;;;;;;;;;;;;;;;;;2134906;67;1428;-67
2021/07/19 09:25:09;;;;;;;;;;;;;;;;;;2134539;67;1971;-68
2021/07/19 09:27:35;;;;;;;;;;;;;;;;;;2136826;67;1174;-68
2021/07/19 09:30:09;;;;;;;;;;;;;;;;;;2134823;67;1172;-68
2021/07/19 09:32:50;;;;;;;;;;;;;;;;;;2137406;67;1157;-68
2021/07/19 09:35:15;;;;;;;;;;;;;;;;;;2134941;67;1292;-69
2021/07/19 09:37:40;;;;;;;;;;;;;;;;;;2136957;67;1294;-68
2021/07/19 09:40:07;;;;;;;;;;;;;;;;;;2134108;59;1416;-68
2021/07/19 09:42:40;;;;;;;;;;;;;;;;;;2136688;67;1168;-66
2021/07/19 09:45:05;;;;;;;;;;;;;;;;;;2134070;67;1984;-68
2021/07/19 09:47:31;;;;;;;;;;;;;;;;;;2136670;59;1235;-69
2021/07/19 09:49:56;;;;;;;;;;;;;;;;;;2135272;67;1769;-66
2021/07/19 09:52:21;;;;;;;;;;;;;;;;;;2136851;67;1060;-67
2021/07/19 09:54:46;;;;;;;;;;;;;;;;;;2134505;67;1191;-68
2021/07/19 09:57:12;;;;;;;;;;;;;;;;;;2135607;67;1161;-68
2021/07/19 09:59:58;;;;;;;;;;;;;;;;;;2134032;67;1239;-68
2021/07/19 10:02:39;;;;;;;;;;;;;;;;;;2135744;67;1957;-66
2021/07/19 10:05:05;;;;;;;;;;;;;;;;;;2134525;67;1932;-67
2021/07/19 10:07:31;;;;;;;;;;;;;;;;;;2135076;67;1138;-67
2021/07/19 10:10:00;;;;;;;;;;;;;;;;;;2134250;67;1141;-68
2021/07/19 10:12:25;;;;;;;;;;;;;;;;;;2133877;59;2005;-68
2021/07/19 10:14:51;;;;;;;;;;;;;;;;;;2134719;67;1217;-68
2021/07/19 10:17:16;;;;;;;;;;;;;;;;;;2135841;59;1551;-70
2021/07/19 10:19:42;;;;;;;;;;;;;;;;;;2134890;67;1200;-66
2021/07/19 10:22:12;;;;;;;;;;;;;;;;;;2134940;67;1168;-66
2021/07/19 10:24:41;;;;;;;;;;;;;;;;;;2133629;59;1977;-65
2021/07/19 10:27:10;;;;;;;;;;;;;;;;;;2134902;67;1184;-66
2021/07/19 10:29:35;;;;;;;;;;;;;;;;;;2134117;67;1247;-68
2021/07/19 10:32:00;;;;;;;;;;;;;;;;;;2135396;67;1163;-68
2021/07/19 10:34:26;;;;;;;;;;;;;;;;;;2136522;67;1218;-67
2021/07/19 10:36:53;;;;;;;;;;;;;;;;;;2134392;59;1987;-67
2021/07/19 10:39:27;;;;;;;;;;;;;;;;;;2136438;67;1178;-65
2021/07/19 10:42:03;;;;;;;;;;;;;;;;;;2134528;67;1054;-67
2021/07/19 10:44:33;;;;;;;;;;;;;;;;;;2135864;67;1924;-67
2021/07/19 10:47:08;;;;;;;;;;;;;;;;;;2134172;67;1310;-65
2021/07/19 10:49:40;;;;;;;;;;;;;;;;;;2135398;67;1471;-67
2021/07/19 10:52:08;;;;;;;;;;;;;;;;;;2134915;67;1217;-65
2021/07/19 10:54:44;;;;;;;;;;;;;;;;;;2134938;67;1223;-66
2021/07/19 10:57:09;;;;;;;;;;;;;;;;;;2134174;67;1107;-67
2021/07/19 10:59:38;;;;;;;;;;;;;;;;;;2135927;67;1148;-67
2021/07/19 11:02:04;;;;;;;;;;;;;;;;;;2134107;67;1229;-66
2021/07/19 11:04:29;;;;;;;;;;;;;;;;;;2136130;59;1927;-67
2021/07/19 11:06:57;;;;;;;;;;;;;;;;;;2134559;67;1173;-67
2021/07/19 11:09:32;;;;;;;;;;;;;;;;;;2133122;67;1301;-67
2021/07/19 11:12:05;;;;;;;;;;;;;;;;;;2134312;59;1323;-66
2021/07/19 11:14:40;;;;;;;;;;;;;;;;;;2135216;67;1242;-68
2021/07/19 11:17:08;;;;;;;;;;;;;;;;;;2134269;59;1302;-67
2021/07/19 11:19:39;;;;;;;;;;;;;;;;;;2135534;59;1168;-67
2021/07/19 11:22:05;;;;;;;;;;;;;;;;;;2134537;67;1262;-68
2021/07/19 11:24:37;;;;;;;;;;;;;;;;;;2135731;59;1976;-68
2021/07/19 11:27:02;;;;;;;;;;;;;;;;;;2134989;67;1149;-67
2021/07/19 11:29:29;;;;;;;;;;;;;;;;;;2135937;67;1191;-67
2021/07/19 11:32:03;;;;;;;;;;;;;;;;;;2134350;67;1221;-65
2021/07/19 11:34:28;;;;;;;;;;;;;;;;;;2135539;59;1587;-67
2021/07/19 11:36:53;;;;;;;;;;;;;;;;;;2134927;67;1090;-66
2021/07/19 11:39:19;;;;;;;;;;;;;;;;;;2135671;67;1369;-66
2021/07/19 11:41:45;;;;;;;;;;;;;;;;;;2134237;67;1136;-71
2021/07/19 11:44:14;;;;;;;;;;;;;;;;;;2136008;67;1926;-68
2021/07/19 11:46:39;;;;;;;;;;;;;;;;;;2134470;59;1180;-67
2021/07/19 11:49:09;;;;;;;;;;;;;;;;;;2135658;67;1252;-68
2021/07/19 11:51:35;;;;;;;;;;;;;;;;;;2134813;67;1348;-70
2021/07/19 11:54:01;;;;;;;;;;;;;;;;;;2137238;67;1227;-71
2021/07/19 11:56:27;;;;;;;;;;;;;;;;;;2134547;67;1168;-66
2021/07/19 11:58:53;;;;;;;;;;;;;;;;;;2136605;67;1150;-66
2021/07/19 12:01:28;;;;;;;;;;;;;;;;;;2135404;67;1187;-65
2021/07/19 12:03:58;;;;;;;;;;;;;;;;;;2136068;59;1935;-67
2021/07/19 12:06:23;;;;;;;;;;;;;;;;;;2135473;67;1322;-68
2021/07/19 12:08:53;;;;;;;;;;;;;;;;;;2135929;67;1151;-66
2021/07/19 12:11:18;;;;;;;;;;;;;;;;;;2135096;67;1163;-66
2021/07/19 12:13:44;;;;;;;;;;;;;;;;;;2135575;59;1498;-66
2021/07/19 12:16:10;;;;;;;;;;;;;;;;;;2136817;59;1335;-67
2021/07/19 12:18:36;;;;;;;;;;;;;;;;;;2134436;67;1322;-68
2021/07/19 12:21:01;;;;;;;;;;;;;;;;;;2135716;67;1145;-68
2021/07/19 12:23:56;;;;;;;;;;;;;;;;;;2135886;59;1963;-67
2021/07/19 12:26:21;;;;;;;;;;;;;;;;;;2134585;59;1325;-68
2021/07/19 12:28:50;;;;;;;;;;;;;;;;;;2135800;67;1045;-66
2021/07/19 12:31:20;;;;;;;;;;;;;;;;;;2136007;67;1131;-68
2021/07/19 12:33:45;;;;;;;;;;;;;;;;;;2135631;67;1217;-69
2021/07/19 12:36:10;;;;;;;;;;;;;;;;;;2135354;67;1188;-68
2021/07/19 12:38:36;;;;;;;;;;;;;;;;;;2134526;67;1088;-67
2021/07/19 12:41:01;;;;;;;;;;;;;;;;;;2135867;67;1193;-68
2021/07/19 12:43:26;;;;;;;;;;;;;;;;;;2134999;67;1944;-69
2021/07/19 12:45:51;;;;;;;;;;;;;;;;;;2136002;67;1168;-69
2021/07/19 12:48:17;;;;;;;;;;;;;;;;;;2136322;67;1289;-68
2021/07/19 12:50:42;;;;;;;;;;;;;;;;;;2136256;67;1138;-69
2021/07/19 12:53:11;;;;;;;;;;;;;;;;;;2135522;67;1216;-66
2021/07/19 12:55:36;;;;;;;;;;;;;;;;;;2134884;67;1298;-69
2021/07/19 12:58:01;;;;;;;;;;;;;;;;;;2134704;67;1173;-66
2021/07/19 13:00:28;;;;;;;;;;;;;;;;;;2135078;67;1142;-66
2021/07/19 13:03:04;;;;;;;;;;;;;;;;;;2133455;67;1173;-66
2021/07/19 13:05:29;;;;;;;;;;;;;;;;;;2135654;67;1951;-66
2021/07/19 13:07:54;;;;;;;;;;;;;;;;;;2134356;67;1056;-68
2021/07/19 13:10:25;;;;;;;;;;;;;;;;;;2136024;67;1147;-66
2021/07/19 13:12:56;;;;;;;;;;;;;;;;;;2134902;59;1285;-65
2021/07/19 13:15:22;;;;;;;;;;;;;;;;;;2135864;59;1278;-69
2021/07/19 13:17:47;;;;;;;;;;;;;;;;;;2134078;59;1177;-68
2021/07/19 13:20:15;;;;;;;;;;;;;;;;;;2136151;67;1152;-69
2021/07/19 13:22:42;;;;;;;;;;;;;;;;;;2134369;59;1133;-65
2021/07/19 13:25:10;;;;;;;;;;;;;;;;;;2135807;67;1932;-69
2021/07/19 13:27:40;;;;;;;;;;;;;;;;;;2134686;59;1135;-67
2021/07/19 13:30:05;;;;;;;;;;;;;;;;;;2135832;67;1157;-68
2021/07/19 13:32:30;;;;;;;;;;;;;;;;;;2134952;67;1179;-68
2021/07/19 13:34:56;;;;;;;;;;;;;;;;;;2136698;67;1167;-68
2021/07/19 13:37:23;;;;;;;;;;;;;;;;;;2135087;59;1061;-67
2021/07/19 13:39:48;;;;;;;;;;;;;;;;;;2134835;67;1156;-69
2021/07/19 13:42:15;;;;;;;;;;;;;;;;;;2135769;67;1143;-68
2021/07/19 13:44:41;;;;;;;;;;;;;;;;;;2134288;67;1917;-67
2021/07/19 13:47:06;;;;;;;;;;;;;;;;;;2135807;67;1260;-68
2021/07/19 13:49:32;;;;;;;;;;;;;;;;;;2135912;67;1431;-70
2021/07/19 13:51:58;;;;;;;;;;;;;;;;;;2135644;67;1516;-68
2021/07/19 13:54:23;;;;;;;;;;;;;;;;;;2133978;67;1131;-67
2021/07/19 13:56:48;;;;;;;;;;;;;;;;;;2135863;67;1247;-68
2021/07/19 13:59:13;;;;;;;;;;;;;;;;;;2134089;67;1164;-67
2021/07/19 14:01:39;;;;;;;;;;;;;;;;;;2133511;67;1196;-66
2021/07/19 14:04:04;;;;;;;;;;;;;;;;;;2133629;59;2139;-69
2021/07/19 14:06:31;;;;;;;;;;;;;;;;;;2132809;59;1300;-67
2021/07/19 14:08:56;;;;;;;;;;;;;;;;;;2133761;59;1225;-66
2021/07/19 14:11:21;;;;;;;;;;;;;;;;;;2134611;59;1244;-70
2021/07/19 14:13:46;;;;;;;;;;;;;;;;;;2135000;59;1518;-70
2021/07/19 14:16:12;;;;;;;;;;;;;;;;;;2136239;59;1262;-69
2021/07/19 14:18:37;;;;;;;;;;;;;;;;;;2135078;67;1057;-66
2021/07/19 14:21:02;;;;;;;;;;;;;;;;;;2135936;59;1135;-67
2021/07/19 14:23:28;;;;;;;;;;;;;;;;;;2136586;59;1984;-66
2021/07/19 14:25:53;;;;;;;;;;;;;;;;;;2135019;59;1161;-70
2021/07/19 14:28:18;;;;;;;;;;;;;;;;;;2136174;67;1153;-70
2021/07/19 14:30:43;;;;;;;;;;;;;;;;;;2133902;67;1173;-69
2021/07/19 14:33:08;;;;;;;;;;;;;;;;;;2135854;67;1221;-65
2021/07/19 14:35:34;;;;;;;;;;;;;;;;;;2133813;67;1107;-67
2021/07/19 14:37:59;;;;;;;;;;;;;;;;;;2136705;59;1203;-68
2021/07/19 14:40:25;;;;;;;;;;;;;;;;;;2135460;67;1000;-68
2021/07/19 14:42:50;;;;;;;;;;;;;;;;;;2136333;67;1326;-69
2021/07/19 14:45:16;;;;;;;;;;;;;;;;;;2134474;67;1920;-68
2021/07/19 14:47:41;;;;;;;;;;;;;;;;;;2137160;67;1160;-68
2021/07/19 14:50:07;;;;;;;;;;;;;;;;;;2136100;67;1591;-69
2021/07/19 14:52:33;;;;;;;;;;;;;;;;;;2135802;67;1201;-68
2021/07/19 14:54:58;;;;;;;;;;;;;;;;;;2133609;67;1212;-68
2021/07/19 14:57:23;;;;;;;;;;;;;;;;;;2135190;67;1241;-65
2021/07/19 14:59:48;;;;;;;;;;;;;;;;;;2134082;67;1128;-68
2021/07/19 15:02:14;;;;;;;;;;;;;;;;;;2135504;67;1137;-68
2021/07/19 15:04:39;;;;;;;;;;;;;;;;;;2134424;59;1932;-67
2021/07/19 15:07:04;;;;;;;;;;;;;;;;;;2135290;67;1250;-67
2021/07/19 15:09:30;;;;;;;;;;;;;;;;;;2134555;67;1247;-64
2021/07/19 15:11:55;;;;;;;;;;;;;;;;;;2134772;59;1262;-68
2021/07/19 15:14:20;;;;;;;;;;;;;;;;;;2133896;59;1191;-69
2021/07/19 15:16:45;;;;;;;;;;;;;;;;;;2135086;59;1452;-67
2021/07/19 15:19:11;;;;;;;;;;;;;;;;;;2134037;67;1163;-69
2021/07/19 15:21:36;;;;;;;;;;;;;;;;;;2134499;67;1207;-67
2021/07/19 15:24:01;;;;;;;;;;;;;;;;;;2135270;59;1909;-70
2021/07/19 15:26:26;;;;;;;;;;;;;;;;;;2134464;67;1283;-67
2021/07/19 15:28:52;;;;;;;;;;;;;;;;;;2135002;67;1334;-69
2021/07/19 15:31:17;;;;;;;;;;;;;;;;;;2135049;67;1160;-68
2021/07/19 15:33:42;;;;;;;;;;;;;;;;;;2137445;67;1376;-69
2021/07/19 15:36:07;;;;;;;;;;;;;;;;;;2133457;67;1352;-67
2021/07/19 15:38:32;;;;;;;;;;;;;;;;;;2136687;67;1176;-70
2021/07/19 15:40:57;;;;;;;;;;;;;;;;;;2133875;59;1245;-69
2021/07/19 15:43:23;;;;;;;;;;;;;;;;;;2136308;67;1206;-69
2021/07/19 15:45:48;;;;;;;;;;;;;;;;;;2133959;67;1935;-68
2021/07/19 15:48:13;;;;;;;;;;;;;;;;;;2134352;67;1372;-67
2021/07/19 15:50:38;;;;;;;;;;;;;;;;;;2134934;67;1167;-68
2021/07/19 15:53:03;;;;;;;;;;;;;;;;;;2136399;67;1247;-68
2021/07/19 15:55:29;;;;;;;;;;;;;;;;;;2133872;67;1140;-69
2021/07/19 15:57:54;;;;;;;;;;;;;;;;;;2134805;59;1200;-68
2021/07/19 16:00:19;;;;;;;;;;;;;;;;;;2133338;67;1133;-67
2021/07/19 16:02:49;;;;;;;;;;;;;;;;;;2135773;59;1259;-69
2021/07/19 16:05:14;;;;;;;;;;;;;;;;;;2134801;59;1983;-69
2021/07/19 16:07:39;;;;;;;;;;;;;;;;;;2134344;67;1183;-67
2021/07/19 16:10:09;;;;;;;;;;;;;;;;;;2133490;67;1040;-67
2021/07/19 16:12:34;;;;;;;;;;;;;;;;;;2134345;59;1184;-68
2021/07/19 16:14:59;;;;;;;;;;;;;;;;;;2136748;59;1244;-67
2021/07/19 16:17:24;;;;;;;;;;;;;;;;;;2135588;67;1354;-67
2021/07/19 16:19:50;;;;;;;;;;;;;;;;;;2135833;67;1174;-69
2021/07/19 16:22:15;;;;;;;;;;;;;;;;;;2134997;67;1415;-68
2021/07/19 16:24:40;;;;;;;;;;;;;;;;;;2135106;59;1985;-69
2021/07/19 16:27:05;;;;;;;;;;;;;;;;;;2135500;67;1223;-68
2021/07/19 16:29:30;;;;;;;;;;;;;;;;;;2135890;67;1215;-66
2021/07/19 16:31:56;;;;;;;;;;;;;;;;;;2135290;67;1227;-69
2021/07/19 16:34:21;;;;;;;;;;;;;;;;;;2137047;59;1287;-68
2021/07/19 16:36:46;;;;;;;;;;;;;;;;;;2136220;67;1167;-67
2021/07/19 16:39:11;;;;;;;;;;;;;;;;;;2135707;67;1180;-69
2021/07/19 16:41:36;;;;;;;;;;;;;;;;;;2133928;67;1175;-67
2021/07/19 16:44:02;;;;;;;;;;;;;;;;;;2138096;67;1967;-65
2021/07/19 16:46:27;;;;;;;;;;;;;;;;;;2135443;67;1152;-66
2021/07/19 16:48:52;;;;;;;;;;;;;;;;;;2136273;67;1109;-67
2021/07/19 16:51:17;;;;;;;;;;;;;;;;;;2136190;67;1310;-68
2021/07/19 16:53:43;;;;;;;;;;;;;;;;;;2136774;67;1235;-67
2021/07/19 16:56:08;;;;;;;;;;;;;;;;;;2135295;67;1293;-68
2021/07/19 16:58:33;;;;;;;;;;;;;;;;;;2136223;67;1072;-66